FW3754 Weather Reports


Display with metric or nautical units.
time (UTC)temp
F
wind
direction
speed
MPH
gust
MPH
rain 1hr
in
rain 24hr
in
rain mn
in
humidity
%
barometer
mb
20210614124832 75 173 0.0 0.0 0.00 0.00 0.34 88 1014.3
20210614123137 75 239 3.0 0.0 0.00 0.00 0.34 88 1014.3
20210614121649 76 188 5.0 0.0 0.00 0.00 0.23 86 1014.6
20210614120144 79 179 0.0 0.0 0.00 0.00 0.01 87 1014.1
20210614114609 79 179 1.0 0.0 0.00 0.00 0.01 87 1013.8
20210614113148 78 194 1.0 0.0 0.00 0.00 0.01 87 1013.8
20210614111601 77 200 1.0 0.0 0.00 0.00 0.00 87 1013.7
20210614110116 77 246 1.0 0.0 0.00 0.00 0.00 87 1013.6
20210614104638 76 252 1.0 0.0 0.00 0.00 0.00 87 1013.2
20210614103147 76 262 0.0 0.0 0.00 0.00 0.00 87 1013.0
20210614101549 76 262 0.0 0.0 0.00 0.00 0.00 87 1012.9
20210614100138 76 269 1.0 0.0 0.00 0.00 0.00 87 1012.8
20210614094654 76 269 1.0 0.0 0.00 0.00 0.00 86 1012.7
20210614093130 76 270 0.0 0.0 0.00 0.00 0.00 86 1012.5
20210614091629 77 270 0.0 0.0 0.00 0.00 0.00 86 1012.4
20210614090317 77 270 0.0 0.0 0.00 0.00 0.00 86 1012.4
20210614084601 77 270 1.0 0.0 0.00 0.00 0.00 86 1012.2
20210614083142 77 270 1.0 0.0 0.00 0.00 0.00 86 1012.3
20210614081659 77 267 2.0 0.0 0.00 0.00 0.00 86 1012.4
20210614080209 77 286 2.0 0.0 0.00 0.00 0.00 86 1012.5
20210614074631 78 271 2.0 0.0 0.00 0.00 0.00 86 1012.4
20210614073056 77 200 2.0 0.0 0.00 0.00 0.00 86 1012.2
20210614071543 78 208 3.0 0.0 0.00 0.00 0.00 86 1012.3
20210614070052 78 273 3.0 0.0 0.00 0.00 0.00 86 1012.7
20210614064614 78 255 2.0 0.0 0.00 0.00 0.00 86 1012.8
20210614063238 78 257 1.0 0.0 0.00 0.00 0.00 86 1012.9
20210614061612 79 257 2.0 0.0 0.00 0.00 0.00 86 1013.0
20210614060129 79 269 2.0 0.0 0.00 0.00 0.00 86 1013.2
20210614054608 79 269 3.0 0.0 0.00 0.00 0.00 85 1013.3
20210614053039 80 237 3.0 0.0 0.00 0.00 0.00 84 1013.4
20210614051535 80 236 3.0 0.0 0.00 0.00 0.00 83 1013.5
20210614050039 80 234 2.0 0.0 0.00 0.00 0.00 82 1013.5
20210614044528 80 230 2.0 0.0 0.00 0.00 0.00 80 1013.6
20210614043023 81 238 3.0 0.0 0.00 0.00 0.00 79 1013.2
20210614041539 81 224 3.0 0.0 0.00 0.00 0.00 79 1013.2
20210614040117 81 211 2.0 0.0 0.00 0.00 0.00 81 1013.4
20210614034513 82 288 3.0 0.0 0.00 0.00 0.18 81 1013.4
20210614033013 82 270 2.0 0.0 0.00 0.00 0.18 80 1013.4
20210614031541 82 288 3.0 0.0 0.00 0.00 0.18 79 1013.4
20210614030008 82 218 3.0 0.0 0.00 0.00 0.18 78 1013.3
20210614024507 83 221 4.0 0.0 0.00 0.00 0.18 78 1013.1
20210614023009 83 271 3.0 0.0 0.00 0.00 0.18 77 1013.1
20210614021524 83 254 3.0 0.0 0.00 0.00 0.18 75 1012.9
20210614020029 83 240 4.0 0.0 0.00 0.00 0.18 73 1012.7
20210614014507 84 263 4.0 0.0 0.00 0.00 0.18 72 1012.4
20210614013013 84 230 4.0 0.0 0.00 0.00 0.18 72 1012.3
20210614011503 84 308 5.0 0.0 0.00 0.00 0.18 70 1011.9
20210614010024 85 295 4.0 0.0 0.00 0.00 0.18 67 1011.9
20210614004501 85 273 4.0 0.0 0.00 0.00 0.18 67 1011.8
20210614003013 86 268 4.0 0.0 0.00 0.00 0.18 67 1011.6
20210614001506 86 281 5.0 0.0 0.00 0.00 0.18 66 1011.2
20210614000001 87 241 2.0 0.0 0.00 0.00 0.18 66 1011.0
20210613234631 89 136 1.0 0.0 0.00 0.00 0.18 70 1010.8
20210613233215 89 130 1.0 0.0 0.00 0.00 0.18 68 1010.7
20210613231630 88 130 2.0 0.0 0.00 0.00 0.18 70 1010.6
20210613230237 89 126 5.0 0.0 0.00 0.00 0.18 68 1010.3
20210613224735 88 137 4.0 0.0 0.00 0.00 0.18 76 1010.1
20210613223204 86 137 2.0 0.0 0.00 0.00 0.18 82 1010.0
20210613221847 85 130 4.0 0.0 0.00 0.00 0.18 86 1009.7
20210613220221 84 115 2.0 0.0 0.00 0.00 0.18 86 1010.0
20210613214616 83 338 2.0 0.0 0.00 0.00 0.18 83 1009.8
20210613213154 89 271 4.0 0.0 0.00 0.00 0.08 65 1010.5
20210613211620 93 272 2.0 0.0 0.00 0.00 0.03 56 1010.2
20210613210131 95 254 2.0 0.0 0.00 0.00 0.03 54 1010.3
20210613204644 93 182 2.0 0.0 0.00 0.00 0.03 55 1010.4
20210613203103 93 298 3.0 0.0 0.00 0.00 0.03 59 1010.6
20210613201556 92 14 1.0 0.0 0.00 0.00 0.03 61 1010.8
20210613200155 89 65 1.0 0.0 0.00 0.00 0.03 68 1011.0
20210613194602 86 26 2.0 0.0 0.00 0.00 0.03 71 1011.2
20210613193151 85 360 1.0 0.0 0.00 0.00 0.03 77 1011.3
20210613191615 84 360 2.0 0.0 0.00 0.00 0.03 77 1011.4
20210613190128 84 335 3.0 0.0 0.00 0.00 0.03 79 1011.4
20210613184640 83 323 4.0 0.0 0.00 0.00 0.03 83 1011.4
20210613183105 85 315 6.0 0.0 0.00 0.00 0.03 76 1011.6
20210613181630 89 270 5.0 0.0 0.00 0.00 0.00 66 1011.9
20210613180053 90 205 5.0 0.0 0.00 0.00 0.00 60 1012.2
20210613174620 92 233 6.0 0.0 0.00 0.00 0.00 63 1012.1
20210613173124 93 269 4.0 0.0 0.00 0.00 0.00 58 1012.1
20210613171559 93 246 5.0 0.0 0.00 0.00 0.00 58 1012.2
20210613170054 92 242 5.0 0.0 0.00 0.00 0.00 59 1012.5
20210613164540 92 221 4.0 0.0 0.00 0.00 0.00 59 1012.5
20210613163205 91 228 4.0 0.0 0.00 0.00 0.00 61 1012.7
20210613161622 90 267 4.0 0.0 0.00 0.00 0.00 64 1012.6
20210613160046 89 284 3.0 0.0 0.00 0.00 0.00 64 1012.8
20210613154543 89 232 3.0 0.0 0.00 0.00 0.00 67 1012.9
20210613153055 90 242 2.0 0.0 0.00 0.00 0.00 66 1012.9
20210613151629 88 281 2.0 0.0 0.00 0.00 0.00 69 1013.0
20210613150050 87 190 3.0 0.0 0.00 0.00 0.00 70 1013.0
20210613144520 86 236 3.0 0.0 0.00 0.00 0.00 71 1013.2
20210613143019 86 281 3.0 0.0 0.00 0.00 0.00 73 1013.2
20210613141513 85 288 4.0 0.0 0.00 0.00 0.00 75 1013.1
20210613140024 84 263 3.0 0.0 0.00 0.00 0.00 76 1013.2
20210613134523 84 213 4.0 0.0 0.00 0.00 0.00 78 1013.1
20210613133004 83 254 3.0 0.0 0.00 0.00 0.00 82 1013.2
20210613131511 82 217 3.0 0.0 0.00 0.00 0.00 83 1013.0
20210613130128 82 193 4.0 0.0 0.00 0.00 0.00 84 1013.2